createdAt,value
2022-09-07T00:02:17.185Z,2.25
2022-09-07T00:04:43.773Z,2.00
2022-09-07T00:07:10.365Z,2.22
2022-09-07T00:09:36.928Z,2.53
2022-09-07T00:12:03.617Z,2.87
2022-09-07T00:14:30.144Z,2.55
2022-09-07T00:16:56.661Z,2.97
2022-09-07T00:19:23.182Z,2.80
2022-09-07T00:21:49.750Z,2.58
2022-09-07T00:24:16.272Z,2.80
2022-09-07T00:26:42.801Z,2.60
2022-09-07T00:29:09.342Z,2.75
2022-09-07T00:31:35.884Z,2.80
2022-09-07T00:34:02.917Z,2.75
2022-09-07T00:36:29.949Z,2.57
2022-09-07T00:38:56.564Z,2.80
2022-09-07T00:41:23.606Z,2.88
2022-09-07T00:43:55.797Z,2.50
2022-09-07T00:46:32.123Z,2.30
2022-09-07T00:49:13.103Z,2.30
2022-09-07T00:51:46.058Z,2.08
2022-09-07T00:54:19.171Z,2.10
2022-09-07T00:56:48.215Z,2.00
2022-09-07T00:59:19.678Z,2.05
2022-09-07T01:01:46.372Z,1.70
2022-09-07T01:04:14.196Z,1.85
2022-09-07T01:06:43.374Z,2.08
2022-09-07T01:09:13.059Z,1.85
2022-09-07T01:11:40.180Z,1.67
2022-09-07T01:14:10.579Z,1.60
2022-09-07T01:16:54.444Z,2.00
2022-09-07T01:19:26.774Z,2.05
2022-09-07T01:22:24.586Z,2.08
2022-09-07T01:24:57.086Z,2.00
2022-09-07T01:28:02.633Z,2.07
2022-09-07T01:30:34.771Z,2.28
2022-09-07T01:33:39.027Z,1.92
2022-09-07T01:36:05.427Z,2.05
2022-09-07T01:38:41.548Z,2.10
2022-09-07T01:41:21.314Z,1.80
2022-09-07T01:44:00.699Z,2.00
2022-09-07T01:46:30.339Z,1.95
2022-09-07T01:49:05.712Z,1.60
2022-09-07T01:51:37.282Z,1.67
2022-09-07T01:54:37.188Z,1.83
2022-09-07T01:57:12.723Z,1.70
2022-09-07T02:00:04.382Z,1.52
2022-09-07T02:02:38.046Z,1.20
2022-09-07T02:05:13.560Z,1.10
2022-09-07T02:07:49.723Z,1.00
2022-09-07T02:10:29.950Z,1.30
2022-09-07T02:13:10.685Z,1.25
2022-09-07T02:15:52.319Z,1.42
2022-09-07T02:18:21.847Z,1.50
2022-09-07T02:20:54.153Z,1.50
2022-09-07T02:23:26.902Z,1.38
2022-09-07T02:26:02.830Z,1.15
2022-09-07T02:28:32.722Z,1.27
2022-09-07T02:31:00.230Z,1.30
2022-09-07T02:33:28.270Z,1.30
2022-09-07T02:35:55.165Z,1.48
2022-09-07T02:38:22.228Z,1.50
2022-09-07T02:40:56.127Z,1.25
2022-09-07T02:43:24.968Z,1.10
2022-09-07T02:46:14.761Z,1.00
2022-09-07T02:49:16.751Z,1.02
2022-09-07T02:52:16.595Z,1.02
2022-09-07T02:54:53.044Z,0.95
2022-09-07T02:57:51.392Z,0.82
2022-09-07T03:00:26.329Z,0.97
2022-09-07T03:03:04.993Z,0.88
2022-09-07T03:05:52.993Z,0.80
2022-09-07T03:08:26.024Z,0.90
2022-09-07T03:10:54.176Z,1.05
2022-09-07T03:13:26.857Z,0.90
2022-09-07T03:15:55.965Z,1.20
2022-09-07T03:18:27.810Z,1.10
2022-09-07T03:20:55.050Z,0.82
2022-09-07T03:23:21.720Z,1.70
2022-09-07T03:25:51.494Z,1.13
2022-09-07T03:28:17.989Z,1.40
2022-09-07T03:30:47.209Z,1.27
2022-09-07T03:33:17.755Z,1.48
2022-09-07T03:35:45.565Z,1.33
2022-09-07T03:38:12.630Z,1.20
2022-09-07T03:40:39.081Z,1.20
2022-09-07T03:43:05.662Z,1.30
2022-09-07T03:45:32.148Z,1.27
2022-09-07T03:47:58.892Z,1.38
2022-09-07T03:50:25.465Z,1.23
2022-09-07T03:52:52.007Z,1.65
2022-09-07T03:55:18.639Z,1.67
2022-09-07T03:57:45.171Z,1.65
2022-09-07T04:00:12.462Z,1.92
2022-09-07T04:02:39.266Z,1.80
2022-09-07T04:05:06.064Z,1.45
2022-09-07T04:07:32.730Z,1.75
2022-09-07T04:09:59.547Z,1.60
2022-09-07T04:12:26.160Z,1.48
2022-09-07T04:14:52.761Z,1.50
2022-09-07T04:17:19.479Z,1.50
2022-09-07T04:19:46.138Z,1.73
2022-09-07T04:22:13.192Z,2.00
2022-09-07T04:24:39.936Z,1.38
2022-09-07T04:27:06.676Z,1.83
2022-09-07T04:29:33.225Z,1.50
2022-09-07T04:31:59.841Z,1.63
2022-09-07T04:34:26.484Z,1.50
2022-09-07T04:36:52.992Z,1.80
2022-09-07T04:39:19.554Z,2.10
2022-09-07T04:41:46.105Z,1.70
2022-09-07T04:44:16.655Z,2.05
2022-09-07T04:46:43.605Z,1.80
2022-09-07T04:49:11.151Z,1.77
2022-09-07T04:51:38.920Z,1.97
2022-09-07T04:54:05.836Z,2.13
2022-09-07T04:56:32.946Z,2.00
2022-09-07T04:59:01.410Z,2.20
2022-09-07T05:01:28.198Z,1.65
2022-09-07T05:03:54.928Z,1.70
2022-09-07T05:06:23.340Z,2.00
2022-09-07T05:08:53.244Z,1.83
2022-09-07T05:11:26.256Z,1.90
2022-09-07T05:14:00.398Z,2.03
2022-09-07T05:16:28.488Z,2.10
2022-09-07T05:18:58.182Z,2.30
2022-09-07T05:21:28.006Z,1.95
2022-09-07T05:23:56.442Z,1.73
2022-09-07T05:26:24.912Z,2.03
2022-09-07T05:28:52.205Z,2.07
2022-09-07T05:31:21.833Z,2.10
2022-09-07T05:36:41.249Z,2.15
2022-09-07T05:39:08.566Z,2.15
2022-09-07T05:41:35.567Z,2.37
2022-09-07T05:46:48.979Z,3.08
2022-09-07T05:49:15.478Z,1.90
2022-09-07T05:51:41.949Z,2.13
2022-09-07T05:54:08.509Z,2.03
2022-09-07T05:56:36.379Z,1.85
2022-09-07T05:59:03.796Z,2.05
2022-09-07T06:01:30.862Z,2.17
2022-09-07T06:03:57.832Z,2.03
2022-09-07T06:06:24.485Z,2.20
2022-09-07T06:08:53.507Z,2.50
2022-09-07T06:11:22.599Z,2.85
2022-09-07T06:13:49.674Z,2.58
2022-09-07T06:16:18.571Z,2.35
2022-09-07T06:18:47.678Z,2.17
2022-09-07T06:21:17.821Z,2.60
2022-09-07T06:23:46.010Z,3.38
2022-09-07T06:26:13.044Z,3.42
2022-09-07T06:28:41.964Z,3.45
2022-09-07T06:31:14.556Z,3.67
2022-09-07T06:33:42.723Z,3.75
2022-09-07T06:36:12.563Z,3.95
2022-09-07T06:38:40.017Z,4.22
2022-09-07T06:43:57.031Z,4.27
2022-09-07T06:49:11.260Z,4.60
2022-09-07T06:51:38.637Z,5.38
2022-09-07T06:56:51.963Z,5.10
2022-09-07T06:59:18.421Z,5.45
2022-09-07T07:01:44.958Z,5.38
2022-09-07T07:04:11.484Z,5.63
2022-09-07T07:06:39.092Z,6.07
2022-09-07T07:09:08.101Z,5.73
2022-09-07T07:11:37.141Z,5.95
2022-09-07T07:14:04.472Z,5.43
2022-09-07T07:16:31.136Z,5.70
2022-09-07T07:18:57.975Z,6.20
2022-09-07T07:21:24.572Z,6.10
2022-09-07T07:23:52.819Z,6.28
2022-09-07T07:26:22.336Z,6.82
2022-09-07T07:29:06.545Z,6.57
2022-09-07T07:31:33.769Z,6.57
2022-09-07T07:34:00.439Z,6.80
2022-09-07T07:36:28.443Z,7.10
2022-09-07T07:44:17.359Z,7.50
2022-09-07T07:46:47.075Z,6.60
2022-09-07T07:49:20.956Z,6.82
2022-09-07T07:54:37.078Z,7.55
2022-09-07T07:57:05.421Z,7.53
2022-09-07T07:59:32.026Z,7.30
2022-09-07T08:02:04.290Z,8.30
2022-09-07T08:04:32.968Z,7.90
2022-09-07T08:06:59.985Z,8.00
2022-09-07T08:09:26.609Z,8.27
2022-09-07T08:11:53.295Z,8.77
2022-09-07T08:14:19.973Z,8.88
2022-09-07T08:16:46.837Z,8.68
2022-09-07T08:19:13.480Z,9.50
2022-09-07T08:21:40.024Z,9.27
2022-09-07T08:24:06.988Z,8.73
2022-09-07T08:26:33.575Z,8.82
2022-09-07T08:29:00.109Z,8.25
2022-09-07T08:31:27.184Z,8.30
2022-09-07T08:33:53.798Z,8.07
2022-09-07T08:36:21.337Z,8.07
2022-09-07T08:38:48.587Z,9.07
2022-09-07T08:41:36.854Z,8.98
2022-09-07T08:44:13.198Z,8.65
2022-09-07T08:46:48.578Z,8.57
2022-09-07T08:49:56.020Z,8.73
2022-09-07T08:52:29.137Z,7.90
2022-09-07T08:55:03.562Z,8.68
2022-09-07T08:57:33.286Z,8.32
2022-09-07T09:00:11.738Z,8.80
2022-09-07T09:02:43.587Z,8.63
2022-09-07T09:05:27.852Z,8.38
2022-09-07T09:08:18.393Z,9.63
2022-09-07T09:11:00.170Z,8.70
2022-09-07T09:13:56.484Z,9.13
2022-09-07T09:16:35.479Z,8.80
2022-09-07T09:19:23.244Z,8.20
2022-09-07T09:22:00.328Z,7.57
2022-09-07T09:24:33.968Z,8.10
2022-09-07T09:27:00.436Z,7.57
2022-09-07T09:29:26.940Z,7.50
2022-09-07T09:31:53.740Z,7.45
2022-09-07T09:34:23.904Z,8.80
2022-09-07T09:36:54.922Z,7.82
2022-09-07T09:39:30.894Z,7.70
2022-09-07T09:42:22.088Z,8.13
2022-09-07T09:44:48.833Z,7.97
2022-09-07T09:47:36.144Z,7.60
2022-09-07T09:52:29.138Z,6.90
2022-09-07T09:53:05.274Z,6.88
2022-09-07T09:55:36.404Z,6.87
2022-09-07T10:06:21.831Z,7.18
2022-09-07T10:09:15.771Z,6.67
2022-09-07T10:12:32.987Z,6.80
2022-09-07T10:15:01.646Z,6.97
2022-09-07T10:17:30.107Z,7.30
2022-09-07T10:20:22.750Z,6.32
2022-09-07T10:22:52.131Z,6.30
2022-09-07T10:25:39.815Z,6.50
2022-09-07T10:28:15.848Z,6.00
2022-09-07T10:30:48.314Z,5.38
2022-09-07T10:33:34.384Z,4.90
2022-09-07T10:36:30.218Z,4.90
2022-09-07T10:39:04.823Z,4.82
2022-09-07T10:41:57.425Z,3.70
2022-09-07T10:44:34.530Z,3.72
2022-09-07T10:47:11.846Z,2.90
2022-09-07T10:52:51.245Z,2.10
2022-09-07T10:55:28.554Z,2.28
2022-09-07T10:59:01.521Z,1.80
2022-09-07T11:01:10.738Z,1.85
2022-09-07T11:03:43.480Z,1.90
2022-09-07T11:06:29.908Z,2.03
2022-09-07T11:09:28.928Z,1.95
2022-09-07T11:12:03.468Z,2.47
2022-09-07T11:14:38.680Z,2.33
2022-09-07T11:17:20.774Z,1.60
2022-09-07T11:19:51.183Z,1.30
2022-09-07T11:22:35.228Z,1.77
2022-09-07T11:25:35.631Z,1.90
2022-09-07T11:28:22.471Z,1.67
2022-09-07T11:30:59.294Z,1.83
2022-09-07T11:34:23.806Z,2.08
2022-09-07T11:36:40.976Z,1.40
2022-09-07T11:39:17.604Z,1.48
2022-09-07T11:42:00.730Z,1.33
2022-09-07T11:44:40.017Z,1.13
2022-09-07T11:47:19.363Z,2.30
2022-09-07T11:49:51.507Z,1.10
2022-09-07T11:52:42.961Z,0.95
2022-09-07T11:55:14.480Z,1.40
2022-09-07T11:58:08.860Z,1.60
2022-09-07T12:00:44.602Z,1.88
2022-09-07T12:03:31.914Z,1.55
2022-09-07T12:06:36.944Z,1.70
2022-09-07T12:09:45.334Z,1.85
2022-09-07T12:12:24.465Z,1.60
2022-09-07T12:15:37.587Z,1.40
2022-09-07T12:18:19.277Z,1.42
2022-09-07T12:20:47.907Z,1.70
2022-09-07T12:23:18.862Z,1.80
2022-09-07T12:25:47.735Z,1.00
2022-09-07T12:28:37.286Z,1.67
2022-09-07T12:31:12.593Z,0.90
2022-09-07T12:33:40.465Z,1.00
2022-09-07T12:36:28.661Z,0.80
2022-09-07T12:39:06.421Z,1.10
2022-09-07T12:45:28.625Z,1.42
2022-09-07T12:48:04.533Z,1.55
2022-09-07T12:50:39.409Z,1.20
2022-09-07T12:53:12.800Z,1.70
2022-09-07T12:56:18.179Z,1.65
2022-09-07T12:58:55.886Z,1.50
2022-09-07T13:01:28.357Z,1.60
2022-09-07T13:04:03.876Z,1.80
2022-09-07T13:07:04.326Z,1.77
2022-09-07T13:09:35.120Z,2.40
2022-09-07T13:15:37.700Z,1.80
2022-09-07T13:18:04.784Z,1.63
2022-09-07T13:20:36.092Z,1.40
2022-09-07T13:23:21.330Z,1.50
2022-09-07T13:25:58.923Z,1.45
2022-09-07T13:28:29.517Z,1.65
2022-09-07T13:31:05.028Z,1.38
2022-09-07T13:33:34.607Z,1.30
2022-09-07T13:36:03.365Z,1.00
2022-09-07T13:38:32.621Z,1.50
2022-09-07T13:41:15.510Z,1.30
2022-09-07T13:43:48.153Z,1.17
2022-09-07T13:46:33.827Z,1.67
2022-09-07T13:49:12.754Z,1.42
2022-09-07T13:51:55.927Z,1.55
2022-09-07T13:54:59.919Z,1.30
2022-09-07T13:57:39.020Z,1.98
2022-09-07T14:00:12.773Z,1.10
2022-09-07T14:02:40.506Z,0.90
2022-09-07T14:05:10.268Z,0.77
2022-09-07T14:07:37.312Z,0.70
2022-09-07T14:10:19.678Z,0.77
2022-09-07T14:12:54.048Z,0.70
2022-09-07T14:15:32.646Z,0.55
2022-09-07T14:18:05.302Z,0.57
2022-09-07T14:20:38.004Z,0.63
2022-09-07T14:23:11.810Z,0.57
2022-09-07T14:28:36.172Z,0.50
2022-09-07T14:31:03.524Z,0.63
2022-09-07T14:33:31.124Z,1.35
2022-09-07T14:35:58.993Z,0.50
2022-09-07T14:41:19.925Z,0.40
2022-09-07T14:43:58.107Z,0.50
2022-09-07T14:46:34.158Z,0.63
2022-09-07T14:49:04.943Z,0.70
2022-09-07T14:51:36.844Z,0.60
2022-09-07T14:54:08.160Z,0.68
2022-09-07T14:56:36.004Z,0.93
2022-09-07T14:59:02.497Z,0.90
2022-09-07T15:01:37.910Z,0.50
2022-09-07T15:04:16.947Z,0.57
2022-09-07T15:09:37.951Z,0.55
2022-09-07T15:12:19.147Z,0.82
2022-09-07T15:14:47.868Z,0.60
2022-09-07T15:17:45.976Z,0.80
2022-09-07T15:20:37.553Z,0.50
2022-09-07T15:23:15.233Z,0.73
2022-09-07T15:25:48.180Z,0.47
2022-09-07T15:34:11.338Z,0.70
2022-09-07T15:36:40.726Z,0.80
2022-09-07T15:39:07.730Z,1.05
2022-09-07T15:41:34.875Z,0.60
2022-09-07T15:44:02.126Z,1.47
2022-09-07T15:46:28.646Z,1.10
2022-09-07T15:48:55.852Z,0.40
2022-09-07T15:54:13.161Z,0.60
2022-09-07T15:56:40.891Z,0.60
2022-09-07T15:59:07.442Z,0.60
2022-09-07T16:04:20.951Z,0.60
2022-09-07T16:06:50.206Z,0.90
2022-09-07T16:09:17.499Z,0.60
2022-09-07T16:11:44.414Z,0.55
2022-09-07T16:14:12.393Z,0.88
2022-09-07T16:19:26.094Z,0.70
2022-09-07T16:21:52.416Z,0.80
2022-09-07T16:24:18.905Z,0.45
2022-09-07T16:26:45.285Z,0.68
2022-09-07T16:29:11.795Z,0.90
2022-09-07T16:31:38.462Z,0.60
2022-09-07T16:34:05.094Z,0.50
2022-09-07T16:36:32.055Z,0.52
2022-09-07T16:39:01.252Z,0.63
2022-09-07T16:41:32.056Z,0.50
2022-09-07T16:43:58.859Z,0.73
2022-09-07T16:46:28.554Z,1.33
2022-09-07T16:48:55.323Z,0.50
2022-09-07T16:51:23.003Z,0.60
2022-09-07T16:53:51.673Z,0.50
2022-09-07T16:56:20.533Z,0.55
2022-09-07T16:58:54.233Z,0.50
2022-09-07T17:01:24.507Z,0.55
2022-09-07T17:03:51.595Z,0.50
2022-09-07T17:06:22.752Z,0.70
2022-09-07T17:08:49.472Z,1.25
2022-09-07T17:11:22.233Z,0.50
2022-09-07T17:13:49.746Z,1.50
2022-09-07T17:16:20.001Z,1.00
2022-09-07T17:21:37.752Z,1.00
2022-09-07T17:24:06.854Z,1.00
2022-09-07T17:26:33.602Z,0.60
2022-09-07T17:29:01.287Z,0.70
2022-09-07T17:34:20.220Z,0.57
2022-09-07T17:36:47.141Z,0.70
2022-09-07T17:39:16.454Z,0.60
2022-09-07T17:41:44.033Z,0.70
2022-09-07T17:44:10.880Z,0.70
2022-09-07T17:46:37.618Z,0.50
2022-09-07T17:49:05.166Z,0.83
2022-09-07T17:51:32.970Z,0.50
2022-09-07T17:54:09.655Z,0.82
2022-09-07T17:56:37.912Z,0.50
2022-09-07T18:01:51.312Z,0.50
2022-09-07T18:04:17.974Z,0.80
2022-09-07T18:06:44.658Z,0.70
2022-09-07T18:09:11.828Z,1.05
2022-09-07T18:11:47.185Z,0.70
2022-09-07T18:14:17.655Z,0.57
2022-09-07T18:16:46.113Z,0.85
2022-09-07T18:19:13.055Z,1.98
2022-09-07T18:21:42.052Z,0.70
2022-09-07T18:24:13.592Z,0.50
2022-09-07T18:26:40.409Z,1.00
2022-09-07T18:29:27.197Z,1.10
2022-09-07T18:31:55.467Z,0.90
2022-09-07T18:34:23.075Z,0.90
2022-09-07T18:36:49.747Z,1.00
2022-09-07T18:39:16.170Z,1.00
2022-09-07T18:41:42.731Z,0.60
2022-09-07T18:46:55.959Z,0.80
2022-09-07T18:49:22.339Z,0.90
2022-09-07T18:54:35.592Z,0.80
2022-09-07T18:57:01.925Z,0.82
2022-09-07T18:59:29.822Z,0.73
2022-09-07T19:02:01.542Z,0.80
2022-09-07T19:05:49.721Z,1.10
2022-09-07T19:07:17.273Z,0.90
2022-09-07T19:09:44.006Z,0.60
2022-09-07T19:12:10.428Z,1.17
2022-09-07T19:14:36.868Z,1.00
2022-09-07T19:17:03.284Z,0.90
2022-09-07T19:19:29.691Z,1.00
2022-09-07T19:21:57.792Z,1.17
2022-09-07T19:24:25.607Z,1.15
2022-09-07T19:26:53.843Z,1.20
2022-09-07T19:29:23.519Z,1.00
2022-09-07T19:32:13.001Z,1.00
2022-09-07T19:34:42.042Z,1.23
2022-09-07T19:37:10.691Z,1.20
2022-09-07T19:39:37.439Z,1.27
2022-09-07T19:42:05.544Z,1.17
2022-09-07T19:44:32.552Z,1.25
2022-09-07T19:47:00.452Z,1.10
2022-09-07T19:49:27.046Z,1.42
2022-09-07T19:51:54.806Z,1.63
2022-09-07T19:54:21.272Z,1.17
2022-09-07T19:56:47.701Z,1.30
2022-09-07T19:59:16.420Z,1.23
2022-09-07T20:01:46.176Z,1.10
2022-09-07T20:04:20.293Z,1.63
2022-09-07T20:06:49.833Z,1.43
2022-09-07T20:09:18.643Z,2.20
2022-09-07T20:11:47.286Z,1.63
2022-09-07T20:14:15.087Z,1.58
2022-09-07T20:16:41.584Z,1.30
2022-09-07T20:19:08.195Z,1.50
2022-09-07T20:21:36.757Z,1.67
2022-09-07T20:24:04.045Z,1.83
2022-09-07T20:26:32.132Z,1.00
2022-09-07T20:29:23.324Z,1.55
2022-09-07T20:31:46.465Z,1.50
2022-09-07T20:34:13.113Z,1.25
2022-09-07T20:36:39.967Z,1.40
2022-09-07T20:39:10.324Z,1.27
2022-09-07T20:41:37.216Z,1.63
2022-09-07T20:44:05.420Z,1.80
2022-09-07T20:46:32.118Z,1.30
2022-09-07T20:48:59.046Z,1.58
2022-09-07T20:51:25.562Z,1.65
2022-09-07T20:53:52.616Z,1.50
2022-09-07T20:56:24.448Z,1.50
2022-09-07T20:58:56.113Z,1.70
2022-09-07T21:01:23.645Z,1.60
2022-09-07T21:03:52.567Z,2.08
2022-09-07T21:06:20.007Z,2.03
2022-09-07T21:08:47.893Z,2.00
2022-09-07T21:11:20.881Z,1.70
2022-09-07T21:13:47.789Z,1.83
2022-09-07T21:16:16.541Z,1.23
2022-09-07T21:18:44.071Z,1.70
2022-09-07T21:21:19.732Z,2.17
2022-09-07T21:23:47.066Z,1.70
2022-09-07T21:26:13.551Z,2.15
2022-09-07T21:28:39.927Z,2.20
2022-09-07T21:31:08.049Z,2.20
2022-09-07T21:33:37.217Z,2.03
2022-09-07T21:36:12.479Z,2.38
2022-09-07T21:38:40.931Z,2.03
2022-09-07T21:41:09.517Z,2.15
2022-09-07T21:43:36.521Z,1.80
2022-09-07T21:46:08.305Z,1.90
2022-09-07T21:48:35.218Z,2.22
2022-09-07T21:51:01.851Z,2.15
2022-09-07T21:53:28.515Z,2.28
2022-09-07T21:55:59.499Z,2.78
2022-09-07T21:58:27.376Z,2.80
2022-09-07T22:00:54.461Z,3.47
2022-09-07T22:03:22.350Z,2.80
2022-09-07T22:05:48.760Z,2.83
2022-09-07T22:08:15.879Z,2.80
2022-09-07T22:10:44.193Z,2.17
2022-09-07T22:13:11.345Z,1.92
2022-09-07T22:15:39.796Z,1.90
2022-09-07T22:18:08.152Z,2.95
2022-09-07T22:20:34.762Z,2.88
2022-09-07T22:23:01.196Z,2.87
2022-09-07T22:25:27.565Z,2.78
2022-09-07T22:27:54.129Z,3.03
2022-09-07T22:30:20.502Z,3.03
2022-09-07T22:32:48.226Z,3.42
2022-09-07T22:35:15.395Z,2.87
2022-09-07T22:37:41.806Z,3.60
2022-09-07T22:40:08.826Z,4.45
2022-09-07T22:42:35.550Z,4.05
2022-09-07T22:45:01.867Z,5.32
2022-09-07T22:47:28.399Z,4.73
2022-09-07T22:49:54.829Z,5.05
2022-09-07T22:52:21.163Z,4.95
2022-09-07T22:54:47.501Z,4.40
2022-09-07T22:57:13.825Z,5.47
2022-09-07T22:59:40.475Z,4.97
2022-09-07T23:02:07.108Z,4.45
2022-09-07T23:04:34.676Z,5.07
2022-09-07T23:07:01.137Z,5.05
2022-09-07T23:09:27.661Z,5.25
2022-09-07T23:11:54.035Z,5.67
2022-09-07T23:14:22.264Z,5.90
2022-09-07T23:16:49.253Z,5.70
2022-09-07T23:19:17.488Z,5.93
2022-09-07T23:21:44.050Z,6.50
2022-09-07T23:24:15.714Z,6.40
2022-09-07T23:26:42.890Z,5.78
2022-09-07T23:29:13.933Z,6.35
2022-09-07T23:31:41.383Z,6.35
2022-09-07T23:34:08.926Z,6.55
2022-09-07T23:36:36.459Z,7.40
2022-09-07T23:39:03.070Z,6.82
2022-09-07T23:41:29.536Z,7.93
2022-09-07T23:43:55.921Z,7.05
2022-09-07T23:46:23.179Z,7.30
2022-09-07T23:48:50.108Z,7.10
2022-09-07T23:51:21.328Z,7.88
2022-09-07T23:53:50.543Z,7.35
2022-09-07T23:56:16.862Z,7.40
2022-09-07T23:58:43.252Z,7.90
